createdAt,value
2018-05-23T00:00:57.741Z,17.20
2018-05-23T00:01:57.825Z,17.20
2018-05-23T00:02:58.247Z,17.19
2018-05-23T00:03:58.697Z,17.30
2018-05-23T00:04:58.329Z,17.33
2018-05-23T00:05:58.065Z,17.27
2018-05-23T00:06:58.235Z,17.22
2018-05-23T00:07:58.197Z,17.16
2018-05-23T00:08:58.525Z,17.26
2018-05-23T00:09:58.329Z,17.22
2018-05-23T00:10:58.393Z,17.14
2018-05-23T00:11:58.465Z,17.16
2018-05-23T00:12:58.534Z,17.16
2018-05-23T00:13:58.593Z,17.20
2018-05-23T00:14:58.657Z,17.20
2018-05-23T00:15:59.454Z,17.24
2018-05-23T00:16:58.797Z,17.16
2018-05-23T00:17:59.450Z,17.19
2018-05-23T00:18:59.351Z,17.20
2018-05-23T00:19:59.070Z,17.20
2018-05-23T00:20:59.082Z,17.20
2018-05-23T00:21:59.458Z,17.12
2018-05-23T00:22:59.187Z,17.22
2018-05-23T00:23:59.250Z,17.19
2018-05-23T00:24:59.317Z,17.12
2018-05-23T00:25:59.502Z,17.12
2018-05-23T00:26:59.450Z,17.12
2018-05-23T00:27:59.734Z,17.11
2018-05-23T00:28:59.598Z,17.19
2018-05-23T00:29:59.646Z,17.08
2018-05-23T00:30:59.710Z,17.11
2018-05-23T00:31:59.778Z,17.06
2018-05-23T00:32:59.851Z,17.08
2018-05-23T00:34:00.023Z,17.05
2018-05-23T00:35:00.035Z,16.97
2018-05-23T00:36:00.047Z,16.96
2018-05-23T00:37:00.126Z,16.99
2018-05-23T00:38:00.194Z,16.99
2018-05-23T00:39:00.271Z,16.87
2018-05-23T00:40:00.330Z,16.94
2018-05-23T00:41:00.375Z,16.90
2018-05-23T00:42:00.435Z,16.84
2018-05-23T00:43:00.588Z,16.84
2018-05-23T00:44:00.575Z,16.90
2018-05-23T00:45:00.635Z,16.90
2018-05-23T00:46:00.699Z,16.81
2018-05-23T00:47:00.780Z,16.78
2018-05-23T00:48:00.838Z,16.72
2018-05-23T00:49:01.439Z,16.72
2018-05-23T00:50:00.967Z,16.71
2018-05-23T00:51:01.712Z,16.74
2018-05-23T00:52:01.095Z,16.71
2018-05-23T00:53:01.184Z,16.71
2018-05-23T00:54:01.932Z,16.68
2018-05-23T00:55:01.296Z,16.72
2018-05-23T00:56:01.755Z,16.54
2018-05-23T00:57:01.426Z,16.61
2018-05-23T00:58:02.020Z,16.64
2018-05-23T00:59:01.561Z,16.60
2018-05-23T01:00:01.924Z,16.56
2018-05-23T01:01:01.826Z,16.53
2018-05-23T01:02:01.748Z,16.53
2018-05-23T01:03:01.832Z,16.64
2018-05-23T01:04:02.032Z,16.53
2018-05-23T01:05:02.080Z,16.56
2018-05-23T01:06:02.079Z,16.54
2018-05-23T01:07:02.104Z,16.60
2018-05-23T01:08:02.304Z,16.53
2018-05-23T01:09:02.744Z,16.58
2018-05-23T01:10:02.280Z,16.61
2018-05-23T01:11:02.345Z,16.60
2018-05-23T01:12:02.461Z,16.60
2018-05-23T01:13:02.481Z,16.60
2018-05-23T01:14:02.549Z,16.57
2018-05-23T01:15:02.645Z,16.71
2018-05-23T01:16:02.673Z,16.58
2018-05-23T01:17:02.777Z,16.64
2018-05-23T01:18:02.808Z,16.61
2018-05-23T01:19:02.920Z,16.61
2018-05-23T01:20:02.942Z,16.65
2018-05-23T01:21:03.001Z,16.60
2018-05-23T01:22:03.069Z,16.58
2018-05-23T01:23:03.148Z,16.66
2018-05-23T01:24:03.202Z,16.71
2018-05-23T01:25:03.264Z,16.68
2018-05-23T01:26:03.329Z,16.68
2018-05-23T01:27:03.393Z,16.71
2018-05-23T01:28:03.478Z,16.66
2018-05-23T01:29:03.621Z,16.68
2018-05-23T01:30:03.603Z,16.66
2018-05-23T01:31:03.657Z,16.68
2018-05-23T01:32:03.725Z,16.72
2018-05-23T01:33:03.878Z,16.69
2018-05-23T01:34:03.861Z,16.72
2018-05-23T01:35:03.925Z,16.69
2018-05-23T01:36:03.989Z,16.66
2018-05-23T01:37:04.057Z,16.65
2018-05-23T01:38:04.245Z,16.71
2018-05-23T01:39:04.198Z,16.71
2018-05-23T01:40:04.333Z,16.72
2018-05-23T01:41:04.334Z,16.75
2018-05-23T01:42:04.401Z,16.71
2018-05-23T01:43:04.453Z,16.75
2018-05-23T01:44:04.521Z,16.84
2018-05-23T01:45:04.574Z,16.72
2018-05-23T01:46:04.654Z,16.76
2018-05-23T01:47:04.706Z,16.81
2018-05-23T01:48:04.790Z,16.81
2018-05-23T01:49:04.850Z,16.78
2018-05-23T01:50:05.310Z,16.78
2018-05-23T01:51:04.970Z,16.87
2018-05-23T01:52:05.038Z,16.83
2018-05-23T01:53:05.102Z,16.87
2018-05-23T01:54:05.362Z,16.79
2018-05-23T01:55:05.602Z,16.83
2018-05-23T01:56:05.322Z,16.90
2018-05-23T01:57:05.366Z,16.84
2018-05-23T01:58:05.438Z,16.79
2018-05-23T01:59:05.510Z,16.81
2018-05-23T02:00:05.579Z,16.81
2018-05-23T02:01:05.632Z,16.78
2018-05-23T02:02:05.773Z,16.79
2018-05-23T02:03:05.831Z,16.81
2018-05-23T02:04:05.843Z,16.81
2018-05-23T02:05:05.934Z,16.81
2018-05-23T02:06:05.979Z,16.75
2018-05-23T02:07:06.059Z,16.72
2018-05-23T02:08:06.091Z,16.68
2018-05-23T02:09:06.167Z,16.69
2018-05-23T02:10:06.275Z,16.72
2018-05-23T02:11:06.284Z,16.71
2018-05-23T02:12:06.371Z,16.65
2018-05-23T02:13:06.439Z,16.68
2018-05-23T02:14:06.506Z,16.72
2018-05-23T02:15:06.559Z,16.68
2018-05-23T02:16:06.615Z,16.72
2018-05-23T02:17:06.675Z,16.60
2018-05-23T02:18:06.750Z,16.57
2018-05-23T02:19:06.960Z,16.58
2018-05-23T02:20:06.895Z,16.60
2018-05-23T02:21:06.963Z,16.61
2018-05-23T02:22:07.015Z,16.60
2018-05-23T02:23:07.075Z,16.61
2018-05-23T02:24:07.216Z,16.65
2018-05-23T02:25:07.203Z,16.54
2018-05-23T02:26:07.295Z,16.58
2018-05-23T02:27:07.351Z,16.53
2018-05-23T02:28:07.403Z,16.53
2018-05-23T02:29:07.485Z,16.53
2018-05-23T02:30:07.552Z,16.50
2018-05-23T02:31:07.600Z,16.49
2018-05-23T02:32:07.670Z,16.46
2018-05-23T02:33:07.733Z,16.50
2018-05-23T02:34:07.807Z,16.39
2018-05-23T02:35:07.886Z,16.42
2018-05-23T02:36:07.955Z,16.46
2018-05-23T02:37:07.995Z,16.38
2018-05-23T02:38:08.100Z,16.39
2018-05-23T02:39:08.208Z,16.41
2018-05-23T02:40:08.199Z,16.32
2018-05-23T02:41:16.783Z,16.38
2018-05-23T02:42:08.320Z,16.32
2018-05-23T02:43:08.476Z,16.35
2018-05-23T02:44:08.488Z,16.32
2018-05-23T02:45:08.524Z,16.33
2018-05-23T02:46:08.585Z,16.41
2018-05-23T02:47:09.368Z,16.38
2018-05-23T02:48:08.715Z,16.32
2018-05-23T02:49:08.872Z,16.35
2018-05-23T02:50:08.859Z,16.31
2018-05-23T02:51:08.911Z,16.39
2018-05-23T02:52:08.980Z,16.35
2018-05-23T02:53:09.047Z,16.33
2018-05-23T02:54:09.445Z,16.36
2018-05-23T02:55:09.176Z,16.39
2018-05-23T02:56:09.392Z,16.38
2018-05-23T02:57:09.313Z,16.32
2018-05-23T02:58:09.372Z,16.29
2018-05-23T02:59:09.441Z,16.32
2018-05-23T03:00:09.748Z,16.31
2018-05-23T03:01:09.569Z,16.28
2018-05-23T03:02:09.633Z,16.26
2018-05-23T03:03:09.701Z,16.32
2018-05-23T03:04:09.765Z,16.26
2018-05-23T03:05:10.488Z,16.24
2018-05-23T03:06:09.900Z,16.24
2018-05-23T03:07:09.968Z,16.26
2018-05-23T03:08:10.029Z,16.24
2018-05-23T03:09:18.316Z,16.28
2018-05-23T03:10:10.312Z,16.29
2018-05-23T03:11:10.225Z,16.29
2018-05-23T03:12:13.881Z,16.21
2018-05-23T03:13:11.411Z,16.26
2018-05-23T03:14:10.421Z,16.31
2018-05-23T03:15:10.649Z,16.29
2018-05-23T03:16:10.569Z,16.24
2018-05-23T03:17:10.616Z,16.35
2018-05-23T03:18:10.689Z,16.26
2018-05-23T03:19:18.285Z,16.23
2018-05-23T03:20:10.825Z,16.26
2018-05-23T03:21:10.897Z,16.33
2018-05-23T03:22:11.024Z,16.23
2018-05-23T03:23:11.014Z,16.38
2018-05-23T03:24:11.142Z,16.29
2018-05-23T03:25:11.289Z,16.35
2018-05-23T03:26:11.206Z,16.38
2018-05-23T03:27:11.277Z,16.35
2018-05-23T03:28:11.342Z,16.31
2018-05-23T03:29:12.550Z,16.38
2018-05-23T03:30:11.478Z,16.38
2018-05-23T03:31:11.890Z,16.31
2018-05-23T03:32:11.594Z,16.26
2018-05-23T03:33:11.670Z,16.32
2018-05-23T03:34:11.730Z,16.31
2018-05-23T03:35:11.814Z,16.31
2018-05-23T03:36:11.866Z,16.31
2018-05-23T03:37:11.927Z,16.28
2018-05-23T03:38:11.990Z,16.35
2018-05-23T03:39:12.728Z,16.35
2018-05-23T03:40:12.123Z,16.36
2018-05-23T03:41:12.210Z,16.39
2018-05-23T03:42:12.263Z,16.36
2018-05-23T03:43:12.842Z,16.33
2018-05-23T03:44:12.394Z,16.35
2018-05-23T03:45:12.466Z,16.38
2018-05-23T03:46:12.529Z,16.35
2018-05-23T03:47:12.591Z,16.35
2018-05-23T03:48:12.647Z,16.31
2018-05-23T03:49:14.107Z,16.38
2018-05-23T03:50:12.779Z,16.35
2018-05-23T03:51:12.854Z,16.38
2018-05-23T03:52:13.847Z,16.39
2018-05-23T03:53:12.979Z,16.33
2018-05-23T03:54:13.504Z,16.38
2018-05-23T03:55:13.266Z,16.38
2018-05-23T03:56:13.171Z,16.38
2018-05-23T03:57:13.276Z,16.41
2018-05-23T03:58:13.307Z,16.39
2018-05-23T03:59:13.367Z,16.35
2018-05-23T04:00:13.435Z,16.38
2018-05-23T04:01:13.507Z,16.43
2018-05-23T04:02:13.595Z,16.33
2018-05-23T04:03:14.400Z,16.33
2018-05-23T04:04:13.696Z,16.39
2018-05-23T04:05:13.759Z,16.41
2018-05-23T04:06:13.827Z,16.42
2018-05-23T04:07:14.348Z,16.49
2018-05-23T04:08:13.967Z,16.50
2018-05-23T04:09:14.399Z,16.51
2018-05-23T04:10:14.094Z,16.43
2018-05-23T04:11:14.240Z,16.47
2018-05-23T04:12:14.444Z,16.47
2018-05-23T04:13:14.283Z,16.56
2018-05-23T04:14:14.392Z,16.54
2018-05-23T04:15:14.518Z,16.64
2018-05-23T04:16:14.480Z,16.57
2018-05-23T04:17:14.552Z,16.61
2018-05-23T04:18:14.620Z,16.66
2018-05-23T04:19:14.675Z,16.60
2018-05-23T04:20:14.740Z,16.58
2018-05-23T04:21:15.092Z,16.58
2018-05-23T04:22:14.887Z,16.71
2018-05-23T04:23:14.952Z,16.72
2018-05-23T04:24:15.012Z,16.76
2018-05-23T04:25:15.074Z,16.68
2018-05-23T04:26:15.132Z,16.71
2018-05-23T04:27:15.228Z,16.76
2018-05-23T04:28:15.268Z,16.72
2018-05-23T04:29:15.336Z,16.72
2018-05-23T04:30:15.400Z,16.72
2018-05-23T04:31:15.469Z,16.81
2018-05-23T04:32:15.548Z,16.78
2018-05-23T04:33:15.624Z,16.84
2018-05-23T04:34:16.593Z,16.78
2018-05-23T04:35:15.728Z,16.78
2018-05-23T04:36:15.797Z,16.76
2018-05-23T04:37:15.861Z,16.83
2018-05-23T04:38:15.933Z,16.84
2018-05-23T04:39:16.555Z,16.87
2018-05-23T04:40:16.057Z,16.89
2018-05-23T04:41:16.125Z,16.87
2018-05-23T04:42:16.217Z,16.83
2018-05-23T04:43:16.258Z,16.87
2018-05-23T04:44:16.322Z,16.89
2018-05-23T04:45:16.385Z,16.90
2018-05-23T04:46:17.273Z,16.89
2018-05-23T04:47:16.529Z,16.84
2018-05-23T04:48:16.973Z,16.87
2018-05-23T04:49:16.641Z,16.97
2018-05-23T04:50:17.241Z,16.99
2018-05-23T04:51:16.782Z,17.01
2018-05-23T04:52:16.900Z,16.96
2018-05-23T04:53:16.914Z,16.96
2018-05-23T04:54:17.742Z,17.08
2018-05-23T04:55:17.048Z,17.08
2018-05-23T04:56:17.470Z,17.04
2018-05-23T04:57:17.170Z,17.05
2018-05-23T04:58:17.714Z,17.06
2018-05-23T04:59:17.306Z,17.08
2018-05-23T05:00:17.370Z,17.09
2018-05-23T05:01:17.434Z,17.06
2018-05-23T05:02:17.502Z,17.11
2018-05-23T05:03:17.587Z,17.09
2018-05-23T05:04:17.638Z,17.12
2018-05-23T05:05:17.690Z,17.12
2018-05-23T05:06:17.767Z,17.14
2018-05-23T05:07:17.829Z,17.14
2018-05-23T05:08:17.902Z,17.14
2018-05-23T05:09:17.971Z,17.19
2018-05-23T05:10:18.023Z,17.19
2018-05-23T05:11:18.091Z,17.15
2018-05-23T05:12:18.615Z,17.19
2018-05-23T05:13:18.242Z,17.20
2018-05-23T05:14:18.295Z,17.24
2018-05-23T05:15:18.355Z,17.22
2018-05-23T05:16:19.227Z,17.20
2018-05-23T05:17:18.483Z,17.31
2018-05-23T05:18:18.563Z,17.29
2018-05-23T05:19:19.375Z,17.33
2018-05-23T05:20:18.679Z,17.31
2018-05-23T05:21:18.819Z,17.22
2018-05-23T05:22:18.815Z,17.26
2018-05-23T05:23:18.927Z,17.39
2018-05-23T05:24:18.951Z,17.44
2018-05-23T05:25:19.147Z,17.33
2018-05-23T05:26:19.080Z,17.39
2018-05-23T05:27:19.147Z,17.45
2018-05-23T05:28:19.227Z,17.45
2018-05-23T05:29:19.383Z,17.45
2018-05-23T05:30:19.336Z,17.44
2018-05-23T05:31:19.415Z,17.46
2018-05-23T05:32:19.505Z,17.46
2018-05-23T05:33:19.540Z,17.46
2018-05-23T05:34:19.632Z,17.44
2018-05-23T05:35:19.676Z,17.51
2018-05-23T05:36:19.788Z,17.56
2018-05-23T05:37:19.863Z,17.59
2018-05-23T05:38:19.868Z,17.56
2018-05-23T05:39:19.944Z,17.57
2018-05-23T05:40:20.009Z,17.56
2018-05-23T05:41:20.066Z,17.57
2018-05-23T05:42:20.140Z,17.68
2018-05-23T05:43:20.264Z,17.59
2018-05-23T05:44:20.292Z,17.70
2018-05-23T05:45:20.329Z,17.65
2018-05-23T05:46:20.404Z,17.79
2018-05-23T05:47:20.464Z,17.76
2018-05-23T05:48:20.528Z,17.74
2018-05-23T05:49:20.600Z,17.78
2018-05-23T05:50:20.668Z,17.85
2018-05-23T05:51:20.760Z,17.82
2018-05-23T05:52:20.792Z,17.86
2018-05-23T05:53:20.856Z,17.95
2018-05-23T05:54:20.928Z,17.94
2018-05-23T05:55:20.997Z,17.89
2018-05-23T05:56:21.108Z,17.87
2018-05-23T05:57:21.124Z,17.87
2018-05-23T05:58:21.192Z,17.94
2018-05-23T05:59:21.364Z,18.01
2018-05-23T06:00:21.320Z,17.97
2018-05-23T06:01:21.384Z,18.05
2018-05-23T06:02:21.452Z,18.05
2018-05-23T06:03:21.633Z,18.11
2018-05-23T06:04:21.592Z,18.07
2018-05-23T06:05:21.657Z,18.08
2018-05-23T06:06:21.785Z,18.13
2018-05-23T06:07:21.784Z,18.08
2018-05-23T06:08:21.849Z,18.16
2018-05-23T06:09:21.928Z,18.20
2018-05-23T06:10:22.056Z,18.22
2018-05-23T06:11:22.160Z,18.22
2018-05-23T06:12:22.120Z,18.33
2018-05-23T06:13:22.180Z,18.35
2018-05-23T06:14:22.333Z,18.33
2018-05-23T06:15:22.313Z,18.35
2018-05-23T06:16:22.409Z,18.44
2018-05-23T06:17:22.446Z,18.52
2018-05-23T06:18:22.509Z,18.49
2018-05-23T06:19:22.585Z,18.53
2018-05-23T06:20:22.723Z,18.52
2018-05-23T06:21:22.745Z,18.59
2018-05-23T06:22:22.839Z,18.63
2018-05-23T06:23:22.848Z,18.66
2018-05-23T06:24:22.918Z,18.65
2018-05-23T06:25:23.046Z,18.63
2018-05-23T06:26:23.078Z,18.71
2018-05-23T06:27:23.112Z,18.73
2018-05-23T06:28:23.174Z,18.78
2018-05-23T06:29:23.353Z,18.78
2018-05-23T06:30:23.330Z,18.83
2018-05-23T06:31:23.374Z,18.75
2018-05-23T06:32:23.442Z,18.77
2018-05-23T06:33:23.506Z,18.83
2018-05-23T06:34:23.582Z,18.80
2018-05-23T06:35:24.358Z,18.95
2018-05-23T06:36:23.714Z,18.92
2018-05-23T06:37:23.774Z,18.95
2018-05-23T06:38:23.842Z,18.93
2018-05-23T06:39:23.918Z,18.95
2018-05-23T06:40:23.982Z,18.96
2018-05-23T06:41:24.038Z,19.09
2018-05-23T06:42:24.109Z,19.08
2018-05-23T06:43:24.833Z,19.21
2018-05-23T06:44:24.255Z,19.09
2018-05-23T06:45:24.551Z,19.21
2018-05-23T06:46:24.493Z,19.14
2018-05-23T06:47:24.443Z,19.15
2018-05-23T06:48:24.506Z,19.21
2018-05-23T06:49:24.586Z,19.24
2018-05-23T06:50:24.647Z,19.30
2018-05-23T06:51:24.714Z,19.29
2018-05-23T06:52:25.419Z,19.40
2018-05-23T06:53:24.875Z,19.39
2018-05-23T06:54:24.915Z,19.44
2018-05-23T06:55:24.983Z,19.44
2018-05-23T06:56:25.920Z,19.51
2018-05-23T06:57:25.731Z,19.52
2018-05-23T06:58:25.179Z,19.64
2018-05-23T06:59:25.351Z,19.63
2018-05-23T07:00:25.311Z,19.69
2018-05-23T07:01:25.379Z,19.74
2018-05-23T07:02:25.447Z,19.67
2018-05-23T07:03:25.512Z,19.85
2018-05-23T07:04:25.588Z,19.82
2018-05-23T07:05:25.655Z,20.00
2018-05-23T07:06:26.304Z,20.00
2018-05-23T07:07:25.783Z,20.04
2018-05-23T07:08:25.851Z,20.06
2018-05-23T07:09:25.923Z,20.19
2018-05-23T07:10:25.992Z,20.21
2018-05-23T07:11:26.052Z,20.28
2018-05-23T07:12:26.119Z,20.40
2018-05-23T07:13:26.187Z,20.48
2018-05-23T07:14:27.084Z,20.52
2018-05-23T07:15:26.488Z,20.62
2018-05-23T07:16:26.388Z,20.59
2018-05-23T07:17:26.455Z,20.56
2018-05-23T07:18:26.524Z,20.58
2018-05-23T07:19:26.595Z,20.59
2018-05-23T07:20:26.668Z,20.55
2018-05-23T07:21:26.732Z,20.59
2018-05-23T07:22:27.184Z,20.63
2018-05-23T07:23:27.352Z,20.58
2018-05-23T07:24:26.936Z,20.75
2018-05-23T07:25:27.004Z,20.70
2018-05-23T07:26:27.077Z,20.80
2018-05-23T07:27:27.136Z,20.93
2018-05-23T07:28:27.204Z,20.97
2018-05-23T07:29:27.268Z,21.14
2018-05-23T07:30:27.840Z,21.24
2018-05-23T07:31:27.737Z,21.32
2018-05-23T07:32:27.477Z,21.42
2018-05-23T07:33:27.541Z,21.45
2018-05-23T07:34:27.618Z,21.48
2018-05-23T07:35:27.680Z,21.55
2018-05-23T07:36:28.348Z,21.67
2018-05-23T07:37:27.824Z,21.77
2018-05-23T07:38:27.888Z,21.75
2018-05-23T07:39:27.952Z,21.79
2018-05-23T07:40:28.265Z,21.73
2018-05-23T07:41:28.123Z,21.77
2018-05-23T07:42:28.157Z,21.77
2018-05-23T07:43:28.230Z,21.91
2018-05-23T07:44:28.293Z,21.92
2018-05-23T07:45:28.361Z,22.07
2018-05-23T07:46:28.438Z,22.02
2018-05-23T07:47:28.505Z,22.14
2018-05-23T07:48:28.569Z,22.18
2018-05-23T07:49:28.637Z,22.28
2018-05-23T07:50:28.705Z,22.32
2018-05-23T07:51:28.784Z,22.48
2018-05-23T07:52:29.418Z,22.59
2018-05-23T07:53:28.909Z,22.78
2018-05-23T07:54:28.982Z,22.87
2018-05-23T07:55:29.237Z,22.91
2018-05-23T07:56:29.486Z,22.93
2018-05-23T07:57:29.186Z,23.03
2018-05-23T07:58:29.253Z,23.15
2018-05-23T07:59:29.326Z,23.20
2018-05-23T08:00:29.841Z,23.27
2018-05-23T08:01:29.725Z,23.44
2018-05-23T08:02:29.538Z,23.31
2018-05-23T08:03:29.602Z,23.46
2018-05-23T08:04:29.918Z,23.68
2018-05-23T08:05:29.850Z,24.01
2018-05-23T08:06:29.818Z,24.51
2018-05-23T08:07:29.890Z,25.17
2018-05-23T08:08:29.952Z,25.58
2018-05-23T08:09:30.022Z,25.78
2018-05-23T08:10:30.534Z,25.83
2018-05-23T08:11:30.483Z,25.54
2018-05-23T08:12:30.344Z,26.05
2018-05-23T08:13:30.679Z,26.52
2018-05-23T08:14:30.383Z,26.89
2018-05-23T08:15:30.450Z,27.30
2018-05-23T08:16:30.522Z,27.59
2018-05-23T08:17:30.599Z,27.59
2018-05-23T08:18:30.670Z,27.52
2018-05-23T08:19:30.738Z,28.14
2018-05-23T08:20:30.810Z,28.48
2018-05-23T08:21:31.206Z,28.79
2018-05-23T08:22:30.966Z,29.38
2018-05-23T08:23:31.039Z,29.22
2018-05-23T08:24:31.427Z,29.54
2018-05-23T08:25:31.178Z,29.71
2018-05-23T08:26:31.378Z,29.86
2018-05-23T08:27:31.465Z,29.93
2018-05-23T08:28:31.471Z,30.19
2018-05-23T08:29:31.479Z,30.68
2018-05-23T08:30:31.550Z,30.66
2018-05-23T08:31:31.627Z,30.69
2018-05-23T08:32:32.067Z,30.83
2018-05-23T08:33:31.782Z,30.62
2018-05-23T08:34:31.855Z,30.46
2018-05-23T08:35:31.931Z,30.55
2018-05-23T08:36:32.191Z,30.66
2018-05-23T08:37:32.523Z,30.53
2018-05-23T08:38:32.159Z,30.48
2018-05-23T08:39:32.235Z,30.62
2018-05-23T08:40:32.779Z,30.68
2018-05-23T08:41:32.783Z,30.62
2018-05-23T08:42:33.287Z,30.51
2018-05-23T08:43:32.543Z,30.28
2018-05-23T08:44:32.624Z,30.19
2018-05-23T08:45:32.695Z,30.32
2018-05-23T08:46:32.772Z,30.51
2018-05-23T08:47:32.859Z,30.32
2018-05-23T08:48:32.931Z,30.03
2018-05-23T08:49:33.532Z,29.51
2018-05-23T08:50:33.076Z,29.19
2018-05-23T08:51:33.151Z,28.97
2018-05-23T08:52:33.228Z,28.79
2018-05-23T08:53:33.327Z,28.69
2018-05-23T08:54:33.624Z,28.94
2018-05-23T08:55:33.466Z,29.47
2018-05-23T08:56:33.532Z,29.57
2018-05-23T08:57:33.614Z,29.08
2018-05-23T08:58:34.268Z,28.67
2018-05-23T08:59:33.767Z,28.48
2018-05-23T09:00:33.836Z,28.41
2018-05-23T09:01:34.416Z,28.25
2018-05-23T09:02:34.308Z,28.30
2018-05-23T09:03:34.072Z,28.42
2018-05-23T09:04:34.140Z,29.23
2018-05-23T09:05:34.208Z,29.59
2018-05-23T09:06:34.364Z,29.84
2018-05-23T09:07:34.673Z,30.09
2018-05-23T09:08:34.440Z,30.40
2018-05-23T09:09:34.717Z,30.69
2018-05-23T09:10:34.796Z,30.96
2018-05-23T09:11:34.660Z,31.21
2018-05-23T09:12:34.846Z,31.20
2018-05-23T09:13:34.820Z,30.94
2018-05-23T09:14:34.896Z,30.84
2018-05-23T09:15:35.268Z,30.84
2018-05-23T09:16:35.048Z,31.02
2018-05-23T09:17:35.118Z,31.20
2018-05-23T09:18:35.354Z,31.46
2018-05-23T09:19:35.484Z,31.49
2018-05-23T09:20:35.344Z,31.33
2018-05-23T09:21:35.420Z,31.25
2018-05-23T09:22:35.497Z,31.40
2018-05-23T09:23:35.581Z,31.37
2018-05-23T09:24:35.661Z,31.22
2018-05-23T09:25:35.993Z,30.85
2018-05-23T09:26:35.801Z,30.51
2018-05-23T09:27:35.876Z,30.62
2018-05-23T09:28:35.961Z,30.70
2018-05-23T09:29:36.038Z,30.77
2018-05-23T09:30:36.240Z,30.51
2018-05-23T09:31:36.181Z,30.23
2018-05-23T09:32:36.257Z,29.82
2018-05-23T09:33:36.365Z,29.61
2018-05-23T09:34:36.409Z,29.56
2018-05-23T09:35:36.485Z,29.44
2018-05-23T09:36:36.561Z,29.34
2018-05-23T09:37:36.637Z,29.38
2018-05-23T09:38:36.717Z,29.26
2018-05-23T09:39:36.817Z,29.35
2018-05-23T09:40:36.861Z,29.27
2018-05-23T09:41:36.937Z,29.26
2018-05-23T09:42:37.257Z,29.32
2018-05-23T09:43:37.425Z,29.26
2018-05-23T09:44:37.166Z,29.24
2018-05-23T09:45:37.237Z,29.16
2018-05-23T09:46:37.313Z,29.02
2018-05-23T09:47:37.506Z,28.84
2018-05-23T09:48:37.470Z,28.72
2018-05-23T09:49:37.770Z,28.51
2018-05-23T09:50:37.610Z,28.45
2018-05-23T09:51:37.685Z,28.54
2018-05-23T09:52:37.762Z,28.42
2018-05-23T09:53:37.842Z,28.67
2018-05-23T09:54:37.914Z,28.70
2018-05-23T09:55:37.982Z,28.78
2018-05-23T09:56:38.145Z,28.88
2018-05-23T09:57:38.130Z,29.14
2018-05-23T09:58:38.371Z,28.96
2018-05-23T09:59:38.278Z,28.66
2018-05-23T10:00:38.354Z,28.94
2018-05-23T10:01:38.915Z,29.20
2018-05-23T10:02:38.501Z,29.51
2018-05-23T10:03:38.582Z,29.76
2018-05-23T10:04:38.654Z,29.76
2018-05-23T10:05:38.722Z,29.75
2018-05-23T10:06:38.797Z,29.72
2018-05-23T10:07:38.870Z,29.75
2018-05-23T10:08:38.986Z,29.91
2018-05-23T10:09:39.026Z,29.91
2018-05-23T10:10:39.094Z,30.13
2018-05-23T10:11:39.374Z,30.09
2018-05-23T10:12:39.243Z,30.16
2018-05-23T10:13:39.499Z,30.40
2018-05-23T10:14:39.639Z,30.51
2018-05-23T10:15:39.471Z,30.68
2018-05-23T10:16:39.544Z,30.73
2018-05-23T10:17:39.615Z,30.75
2018-05-23T10:18:39.695Z,30.66
2018-05-23T10:19:39.771Z,30.25
2018-05-23T10:20:39.839Z,29.79
2018-05-23T10:21:39.951Z,29.63
2018-05-23T10:22:40.435Z,29.50
2018-05-23T10:23:40.067Z,29.68
2018-05-23T10:24:40.503Z,29.84
2018-05-23T10:25:40.268Z,29.94
2018-05-23T10:26:40.288Z,29.57
2018-05-23T10:27:40.632Z,29.84
2018-05-23T10:28:40.439Z,29.95
2018-05-23T10:29:40.511Z,30.00
2018-05-23T10:30:40.580Z,30.13
2018-05-23T10:31:42.481Z,29.78
2018-05-23T10:32:40.732Z,29.66
2018-05-23T10:33:42.496Z,29.23
2018-05-23T10:34:40.911Z,28.60
2018-05-23T10:35:40.960Z,28.33
2018-05-23T10:36:41.024Z,27.59
2018-05-23T10:37:41.100Z,27.44
2018-05-23T10:38:41.191Z,27.51
2018-05-23T10:39:41.560Z,27.32
2018-05-23T10:40:41.326Z,27.21
2018-05-23T10:41:41.392Z,26.93
2018-05-23T10:42:41.548Z,26.71
2018-05-23T10:43:41.549Z,26.68
2018-05-23T10:44:42.022Z,26.66
2018-05-23T10:45:41.684Z,26.56
2018-05-23T10:46:41.757Z,26.29
2018-05-23T10:47:41.828Z,25.99
2018-05-23T10:48:41.908Z,25.85
2018-05-23T10:49:41.989Z,25.55
2018-05-23T10:50:42.045Z,25.50
2018-05-23T10:51:42.524Z,25.38
2018-05-23T10:52:42.345Z,25.14
2018-05-23T10:53:42.261Z,24.96
2018-05-23T10:54:42.681Z,24.80
2018-05-23T10:55:42.550Z,24.76
2018-05-23T10:56:42.473Z,24.76
2018-05-23T10:57:42.558Z,24.61
2018-05-23T10:58:42.761Z,24.47
2018-05-23T10:59:42.897Z,24.48
2018-05-23T11:00:42.885Z,24.33
2018-05-23T11:01:42.829Z,24.29
2018-05-23T11:02:42.905Z,24.23
2018-05-23T11:03:42.973Z,24.30
2018-05-23T11:04:43.053Z,24.23
2018-05-23T11:05:43.141Z,24.13
2018-05-23T11:06:43.210Z,24.20
2018-05-23T11:07:43.254Z,24.11
2018-05-23T11:08:43.326Z,24.20
2018-05-23T11:09:43.403Z,24.26
2018-05-23T11:10:43.466Z,24.26
2018-05-23T11:11:43.710Z,24.08
2018-05-23T11:12:43.609Z,23.96
2018-05-23T11:13:44.074Z,23.92
2018-05-23T11:14:44.102Z,23.88
2018-05-23T11:15:43.846Z,23.78
2018-05-23T11:16:43.894Z,23.61
2018-05-23T11:17:43.950Z,23.46
2018-05-23T11:18:44.538Z,23.27
2018-05-23T11:19:44.369Z,23.37
2018-05-23T11:20:44.174Z,23.20
2018-05-23T11:21:44.230Z,23.13
2018-05-23T11:22:44.310Z,23.08
2018-05-23T11:23:44.898Z,23.00
2018-05-23T11:24:44.447Z,23.02
2018-05-23T11:25:44.530Z,23.05
2018-05-23T11:26:44.587Z,23.15
2018-05-23T11:27:44.656Z,23.13
2018-05-23T11:28:44.718Z,23.20
2018-05-23T11:29:44.878Z,23.23
2018-05-23T11:30:44.878Z,23.27
2018-05-23T11:31:45.666Z,23.32
2018-05-23T11:32:44.999Z,23.36
2018-05-23T11:33:45.069Z,23.50
2018-05-23T11:34:45.142Z,23.58
2018-05-23T11:35:45.975Z,23.63
2018-05-23T11:36:45.270Z,23.62
2018-05-23T11:37:45.347Z,23.55
2018-05-23T11:38:45.407Z,23.74
2018-05-23T11:39:45.483Z,23.83
2018-05-23T11:40:45.558Z,23.99
2018-05-23T11:41:46.283Z,24.08
2018-05-23T11:42:45.699Z,24.29
2018-05-23T11:43:45.762Z,24.30
2018-05-23T11:44:45.831Z,24.53
2018-05-23T11:45:45.907Z,24.36
2018-05-23T11:46:45.975Z,24.45
2018-05-23T11:47:46.039Z,24.57
2018-05-23T11:48:46.668Z,24.66
2018-05-23T11:49:46.179Z,24.80
2018-05-23T11:50:46.359Z,24.65
2018-05-23T11:51:46.323Z,24.69
2018-05-23T11:52:46.792Z,24.81
2018-05-23T11:53:46.783Z,24.84
2018-05-23T11:54:46.959Z,24.86
2018-05-23T11:55:46.608Z,24.93
2018-05-23T11:56:46.671Z,24.78
2018-05-23T11:57:46.735Z,24.91
2018-05-23T11:58:46.814Z,24.91
2018-05-23T11:59:46.875Z,24.99
2018-05-23T12:00:46.952Z,25.06
2018-05-23T12:01:47.102Z,25.06
2018-05-23T12:02:47.087Z,25.11
2018-05-23T12:03:47.155Z,25.06
2018-05-23T12:04:47.219Z,25.04
2018-05-23T12:05:47.479Z,25.14
2018-05-23T12:06:47.392Z,25.14
2018-05-23T12:07:47.440Z,25.11
2018-05-23T12:08:47.508Z,25.16
2018-05-23T12:09:48.136Z,25.08
2018-05-23T12:10:47.643Z,24.95
2018-05-23T12:11:47.887Z,24.76
2018-05-23T12:12:47.792Z,24.61
2018-05-23T12:13:47.852Z,24.36
2018-05-23T12:14:47.929Z,24.36
2018-05-23T12:15:47.991Z,24.26
2018-05-23T12:16:48.556Z,24.24
2018-05-23T12:17:48.496Z,24.20
2018-05-23T12:18:48.608Z,24.08
2018-05-23T12:19:48.276Z,24.03
2018-05-23T12:20:48.348Z,24.08
2018-05-23T12:21:48.816Z,24.13
2018-05-23T12:22:49.164Z,24.08
2018-05-23T12:23:48.553Z,24.05
2018-05-23T12:24:48.620Z,23.95
2018-05-23T12:25:49.468Z,23.78
2018-05-23T12:26:48.777Z,23.51
2018-05-23T12:27:49.037Z,23.62
2018-05-23T12:28:48.907Z,23.54
2018-05-23T12:29:48.973Z,23.59
2018-05-23T12:30:49.041Z,23.58
2018-05-23T12:31:49.137Z,23.47
2018-05-23T12:32:49.177Z,23.54
2018-05-23T12:33:49.697Z,23.58
2018-05-23T12:34:49.641Z,23.56
2018-05-23T12:35:49.384Z,23.65
2018-05-23T12:36:49.473Z,23.61
2018-05-23T12:37:49.533Z,23.74
2018-05-23T12:38:50.049Z,23.66
2018-05-23T12:39:49.669Z,23.63
2018-05-23T12:40:49.744Z,23.58
2018-05-23T12:41:49.817Z,23.43
2018-05-23T12:42:49.877Z,23.51
2018-05-23T12:43:49.945Z,23.36
2018-05-23T12:44:50.018Z,23.27
2018-05-23T12:45:50.089Z,23.15
2018-05-23T12:46:51.050Z,23.12
2018-05-23T12:47:50.222Z,23.03
2018-05-23T12:48:50.694Z,23.08
2018-05-23T12:49:50.358Z,23.15
2018-05-23T12:50:51.082Z,23.25
2018-05-23T12:51:50.506Z,23.28
2018-05-23T12:52:50.575Z,23.43
2018-05-23T12:53:51.082Z,23.23